Time;durP1;ratioP1;P1;durP2;ratioP2;P2;SDS_P1;SDS_P2;PMS_P1;PMS_P2;Temp;Humidity;BMP_temperature;BMP_pressure;BME280_temperature;BME280_humidity;BME280_pressure;Samples;Min_cycle;Max_cycle;Signal;HPM_P1;HPM_P2
2022/08/27 00:01:29;;;;;;;25.48;10.25;;;;;;;19.25;100.00;157356.94;4971818;28;20671;-78
2022/08/27 00:03:56;;;;;;;27.27;10.88;;;;;;;19.26;100.00;157359.47;4955745;28;20126;-80
2022/08/27 00:06:23;;;;;;;26.20;11.25;;;;;;;19.23;100.00;157353.06;4935613;28;20069;-81
2022/08/27 00:08:50;;;;;;;25.17;10.80;;;;;;;19.28;100.00;157363.34;4973692;28;20039;-80
2022/08/27 00:11:17;;;;;;;17.88;9.07;;;;;;;19.23;100.00;157351.72;4972020;28;20154;-80
2022/08/27 00:13:44;;;;;;;21.27;9.73;;;;;;;19.24;100.00;157355.59;4973059;28;20076;-78
2022/08/27 00:16:11;;;;;;;20.83;9.82;;;;;;;19.20;100.00;157345.28;4986623;28;20038;-77
2022/08/27 00:18:38;;;;;;;21.98;10.65;;;;;;;19.19;100.00;157341.41;4950733;28;20038;-82
2022/08/27 00:21:05;;;;;;;23.55;10.05;;;;;;;19.23;100.00;157351.72;4954623;28;20042;-80
2022/08/27 00:23:30;;;;;;;23.15;9.55;;;;;;;19.16;100.00;157335.00;4968525;28;20042;-79
2022/08/27 00:25:57;;;;;;;24.90;10.30;;;;;;;19.12;100.00;157323.34;4989230;28;20040;-79
2022/08/27 00:28:25;;;;;;;22.08;10.07;;;;;;;19.19;100.00;157341.41;4970653;28;20039;-80
2022/08/27 00:30:51;;;;;;;22.75;9.57;;;;;;;19.24;100.00;157354.31;4971676;28;20049;-79
2022/08/27 00:33:17;;;;;;;25.23;10.07;;;;;;;19.20;100.00;157344.03;4972307;28;20035;-79
2022/08/27 00:35:42;;;;;;;20.08;9.35;;;;;;;19.19;100.00;157342.75;4969976;28;20070;-79
2022/08/27 00:38:08;;;;;;;26.42;9.45;;;;;;;19.17;100.00;157337.53;4978615;28;20050;-79
2022/08/27 00:40:34;;;;;;;16.40;8.43;;;;;;;19.13;100.00;157325.97;4954836;28;20397;-80
2022/08/27 00:43:02;;;;;;;20.70;8.98;;;;;;;19.17;100.00;157336.25;4941081;28;20038;-78
2022/08/27 00:45:35;;;;;;;28.45;9.23;;;;;;;19.10;100.00;157318.22;4955338;28;20054;-79
2022/08/27 00:48:01;;;;;;;19.90;8.32;;;;;;;19.03;100.00;157301.47;4963697;28;20078;-80
2022/08/27 00:50:38;;;;;;;26.90;9.40;;;;;;;19.05;100.00;157307.91;4952879;28;20615;-79
2022/08/27 00:53:11;;;;;;;22.20;9.10;;;;;;;19.03;100.00;157301.47;4950036;28;20035;-79
2022/08/27 00:55:46;;;;;;;23.67;8.85;;;;;;;19.03;100.00;157302.75;4953263;28;20507;-79
2022/08/27 00:58:27;;;;;;;24.88;10.10;;;;;;;18.97;100.00;157286.00;4949406;28;20038;-79
2022/08/27 01:00:54;;;;;;;24.10;9.38;;;;;;;18.98;100.00;157288.56;4953850;28;20104;-79
2022/08/27 01:03:20;;;;;;;20.30;8.68;;;;;;;18.96;100.00;157283.41;4956771;28;20031;-80
2022/08/27 01:05:48;;;;;;;22.08;9.02;;;;;;;18.97;100.00;157286.00;4972136;28;20112;-81
2022/08/27 01:08:20;;;;;;;22.30;9.30;;;;;;;18.94;100.00;157278.25;4941996;28;20035;-78
2022/08/27 01:10:47;;;;;;;24.95;9.40;;;;;;;18.95;100.00;157280.81;4968634;28;20070;-79
2022/08/27 01:13:17;;;;;;;26.70;9.48;;;;;;;18.87;100.00;157261.47;4971719;28;20567;-80
2022/08/27 01:15:42;;;;;;;23.55;10.75;;;;;;;18.88;100.00;157264.06;4961082;28;20045;-79
2022/08/27 01:18:12;;;;;;;26.42;10.10;;;;;;;18.81;100.00;157247.28;4939700;28;20027;-80
2022/08/27 01:21:27;;;;;;;24.52;9.82;;;;;;;18.75;100.00;157230.50;4966421;28;20063;-80
2022/08/27 01:24:12;;;;;;;25.67;11.00;;;;;;;18.65;100.00;157206.03;4964745;28;20053;-80
2022/08/27 01:26:38;;;;;;;19.05;9.52;;;;;;;18.75;100.00;157230.50;4972169;28;20034;-77
2022/08/27 01:29:04;;;;;;;25.38;11.75;;;;;;;18.56;100.00;157184.09;4987135;28;20465;-78
2022/08/27 01:31:30;;;;;;;27.40;11.85;;;;;;;18.52;100.00;157172.50;4970173;28;20047;-78
2022/08/27 01:34:05;;;;;;;21.52;9.95;;;;;;;18.53;100.00;157176.34;4951982;28;20119;-77
2022/08/27 01:36:32;;;;;;;22.48;11.65;;;;;;;18.58;100.00;157189.25;4953703;28;20556;-80
2022/08/27 01:38:58;;;;;;;22.83;11.52;;;;;;;18.66;100.00;157208.56;4938293;28;20065;-80
2022/08/27 01:41:24;;;;;;;29.33;11.48;;;;;;;18.61;100.00;157197.00;4955000;28;20047;-79
2022/08/27 01:43:50;;;;;;;31.90;12.80;;;;;;;18.62;100.00;157198.28;4970559;28;20037;-76
2022/08/27 01:46:25;;;;;;;23.60;11.80;;;;;;;18.52;100.00;157172.50;4937320;28;20023;-78
2022/08/27 01:48:51;;;;;;;27.77;12.93;;;;;;;18.61;100.00;157195.66;4967458;28;20125;-78
2022/08/27 01:51:16;;;;;;;30.08;13.77;;;;;;;18.51;100.00;157169.91;4968892;28;20461;-78
2022/08/27 01:53:42;;;;;;;31.65;13.00;;;;;;;18.58;100.00;157187.97;4950615;28;20054;-79
2022/08/27 01:56:08;;;;;;;29.38;13.13;;;;;;;18.55;100.00;157180.22;4968273;28;20118;-79
2022/08/27 01:58:34;;;;;;;27.52;13.02;;;;;;;18.57;100.00;157186.69;4969818;28;20034;-80
2022/08/27 02:01:04;;;;;;;40.13;14.80;;;;;;;18.58;100.00;157189.25;4969826;28;20043;-79
2022/08/27 02:03:30;;;;;;;28.05;12.80;;;;;;;18.61;100.00;157195.66;4963271;28;20516;-78
2022/08/27 02:05:56;;;;;;;27.08;14.40;;;;;;;18.62;100.00;157199.53;4966825;28;20501;-78
2022/08/27 02:08:22;;;;;;;32.42;14.50;;;;;;;18.58;100.00;157187.97;4957551;28;20039;-79
2022/08/27 02:10:49;;;;;;;35.47;15.07;;;;;;;18.58;100.00;157187.97;4954679;28;20038;-78
2022/08/27 02:13:15;;;;;;;32.95;15.13;;;;;;;18.50;100.00;157168.63;4936802;28;20494;-78
2022/08/27 02:15:42;;;;;;;30.17;14.20;;;;;;;18.58;100.00;157189.25;4951934;28;20106;-78
2022/08/27 02:18:09;;;;;;;28.75;14.40;;;;;;;18.57;100.00;157185.38;4937924;28;20034;-78
2022/08/27 02:20:34;;;;;;;34.33;13.93;;;;;;;18.55;100.00;157180.22;4965494;28;20070;-76
2022/08/27 02:23:01;;;;;;;38.75;14.77;;;;;;;18.54;100.00;157178.94;4967863;28;20047;-76
2022/08/27 02:25:27;;;;;;;32.97;14.13;;;;;;;18.53;100.00;157175.06;4938414;28;20027;-76
2022/08/27 02:27:58;;;;;;;39.28;15.40;;;;;;;18.54;100.00;157177.66;4971282;28;20033;-75
2022/08/27 02:30:25;;;;;;;33.15;14.80;;;;;;;18.58;100.00;157189.25;4956697;28;20022;-76
2022/08/27 02:32:51;;;;;;;33.05;13.88;;;;;;;18.54;100.00;157177.66;4957845;28;20023;-76
2022/08/27 02:35:19;;;;;;;35.80;14.43;;;;;;;18.59;100.00;157190.53;4963008;28;20105;-76
2022/08/27 02:37:46;;;;;;;36.55;14.48;;;;;;;18.58;100.00;157189.25;4938427;28;20043;-76
2022/08/27 02:40:16;;;;;;;37.53;13.52;;;;;;;18.60;100.00;157194.38;4947903;28;20030;-76
2022/08/27 02:42:43;;;;;;;30.98;14.30;;;;;;;18.54;100.00;157177.66;4980063;28;20039;-76
2022/08/27 02:45:09;;;;;;;30.15;13.63;;;;;;;18.54;100.00;157177.66;4953312;28;20071;-75
2022/08/27 02:47:35;;;;;;;30.48;12.60;;;;;;;18.53;100.00;157175.06;4972668;28;20031;-77
2022/08/27 02:50:01;;;;;;;38.35;13.95;;;;;;;18.53;100.00;157175.06;4970720;28;20049;-76
2022/08/27 02:52:28;;;;;;;30.27;13.13;;;;;;;18.52;100.00;157173.78;4969452;28;20034;-76
2022/08/27 02:54:57;;;;;;;34.67;13.68;;;;;;;18.48;100.00;157164.75;4980821;28;20440;-75
2022/08/27 02:57:23;;;;;;;33.42;12.95;;;;;;;18.41;100.00;157146.69;4971445;28;20113;-76
2022/08/27 02:59:50;;;;;;;26.20;12.02;;;;;;;18.57;100.00;157186.69;4980450;28;20042;-76
2022/08/27 03:02:17;;;;;;;30.85;12.60;;;;;;;18.51;100.00;157171.19;4971170;28;20038;-76
2022/08/27 03:04:43;;;;;;;28.52;13.00;;;;;;;18.48;100.00;157163.47;4962378;28;20623;-76
2022/08/27 03:07:09;;;;;;;29.70;12.77;;;;;;;18.49;100.00;157167.31;4969393;28;20031;-76
2022/08/27 03:09:35;;;;;;;28.83;12.30;;;;;;;18.52;100.00;157173.78;4968063;28;20050;-75
2022/08/27 03:12:01;;;;;;;36.70;14.77;;;;;;;18.52;100.00;157173.78;4967037;28;20035;-76
2022/08/27 03:14:27;;;;;;;35.70;13.55;;;;;;;18.56;100.00;157184.09;4952780;28;20027;-76
2022/08/27 03:16:54;;;;;;;36.10;14.32;;;;;;;18.46;100.00;157159.59;4978775;28;20042;-76
2022/08/27 03:19:20;;;;;;;34.28;14.70;;;;;;;18.48;100.00;157164.75;4966968;28;20429;-76
2022/08/27 03:21:47;;;;;;;32.33;14.43;;;;;;;18.43;100.00;157151.84;4963741;28;20039;-77
2022/08/27 03:24:13;;;;;;;33.13;13.38;;;;;;;18.37;100.00;157136.41;4981244;28;20033;-77
2022/08/27 03:26:39;;;;;;;32.15;13.48;;;;;;;18.34;100.00;157127.38;4950052;28;20039;-78
2022/08/27 03:29:06;;;;;;;25.98;13.18;;;;;;;18.37;100.00;157135.13;4955859;28;20122;-78
2022/08/27 03:31:32;;;;;;;28.92;13.18;;;;;;;18.34;100.00;157127.38;4944884;28;20039;-78
2022/08/27 03:34:05;;;;;;;31.35;14.25;;;;;;;18.31;100.00;157120.94;4962571;28;20509;-77
2022/08/27 03:36:31;;;;;;;35.25;13.40;;;;;;;18.32;100.00;157123.50;4964037;28;20035;-76
2022/08/27 03:38:56;;;;;;;32.90;14.30;;;;;;;18.34;100.00;157127.38;4966470;28;20031;-77
2022/08/27 03:41:23;;;;;;;29.50;13.20;;;;;;;18.35;100.00;157131.25;4966952;28;20038;-77
2022/08/27 03:43:51;;;;;;;24.27;13.23;;;;;;;18.33;100.00;157126.09;4947057;28;20370;-76
2022/08/27 03:46:19;;;;;;;28.65;13.48;;;;;;;18.27;100.00;157110.59;4964414;28;20037;-77
2022/08/27 03:48:45;;;;;;;27.20;13.23;;;;;;;18.25;100.00;157105.44;4951212;28;20129;-77
2022/08/27 03:51:13;;;;;;;26.77;12.85;;;;;;;18.29;100.00;157117.06;4965407;28;20035;-77
2022/08/27 03:53:42;;;;;;;35.15;13.38;;;;;;;18.29;100.00;157115.78;4962535;28;20142;-77
2022/08/27 03:56:08;;;;;;;28.70;13.00;;;;;;;18.35;100.00;157131.25;4967283;28;20038;-77
2022/08/27 03:58:36;;;;;;;30.60;13.77;;;;;;;18.29;100.00;157117.06;4952519;28;20039;-77
2022/08/27 04:01:03;;;;;;;33.50;13.50;;;;;;;18.32;100.00;157122.22;4953896;28;20074;-76
2022/08/27 04:03:30;;;;;;;34.85;14.68;;;;;;;18.24;100.00;157104.16;4965799;28;20034;-76
2022/08/27 04:05:56;;;;;;;28.58;15.23;;;;;;;18.27;100.00;157110.59;4951645;28;20051;-77
2022/08/27 04:08:24;;;;;;;32.83;14.85;;;;;;;18.31;100.00;157120.94;4952213;28;20031;-76
2022/08/27 04:10:50;;;;;;;36.30;15.15;;;;;;;18.29;100.00;157117.06;4984853;28;20093;-77
2022/08/27 04:13:17;;;;;;;32.17;14.10;;;;;;;18.18;100.00;157087.44;4949313;28;20122;-76
2022/08/27 04:15:47;;;;;;;28.92;13.73;;;;;;;18.18;100.00;157087.44;4974208;28;20027;-74
2022/08/27 04:18:16;;;;;;;27.17;14.05;;;;;;;18.15;100.00;157079.69;4959415;28;20043;-79
2022/08/27 04:20:44;;;;;;;30.02;14.38;;;;;;;18.16;100.00;157082.25;4935074;28;20043;-77
2022/08/27 04:23:09;;;;;;;32.65;14.85;;;;;;;18.19;100.00;157090.00;4954873;28;20038;-78
2022/08/27 04:25:39;;;;;;;26.02;13.48;;;;;;;18.20;100.00;157093.88;4967186;28;20390;-77
2022/08/27 04:28:05;;;;;;;32.60;15.05;;;;;;;18.17;100.00;157084.84;4966671;28;20584;-77
2022/08/27 04:30:31;;;;;;;29.85;15.48;;;;;;;18.17;100.00;157084.84;4964162;28;20047;-76
2022/08/27 04:32:57;;;;;;;28.13;13.32;;;;;;;18.17;100.00;157084.84;4962213;28;20039;-76
2022/08/27 04:35:23;;;;;;;36.42;13.25;;;;;;;18.17;100.00;157086.13;4967448;28;21383;-77
2022/08/27 04:37:49;;;;;;;39.20;14.48;;;;;;;18.17;100.00;157084.84;4968135;28;20034;-77
2022/08/27 04:40:15;;;;;;;34.47;15.35;;;;;;;18.16;100.00;157083.56;4972295;28;20485;-77
2022/08/27 04:42:41;;;;;;;33.45;13.93;;;;;;;18.11;100.00;157070.66;4967195;28;20067;-76
2022/08/27 04:45:07;;;;;;;32.50;14.48;;;;;;;18.07;100.00;157061.63;4963509;28;20820;-76
2022/08/27 04:47:34;;;;;;;25.88;14.02;;;;;;;18.11;100.00;157070.66;4952074;28;20038;-76
2022/08/27 04:50:00;;;;;;;29.80;14.05;;;;;;;18.18;100.00;157087.44;4969511;28;20755;-76
2022/08/27 04:52:26;;;;;;;29.20;13.63;;;;;;;18.21;100.00;157096.41;4949154;28;20086;-77
2022/08/27 04:54:52;;;;;;;25.80;12.82;;;;;;;18.14;100.00;157078.41;4951931;28;20468;-77
2022/08/27 04:57:17;;;;;;;27.73;13.68;;;;;;;18.17;100.00;157084.84;4949054;28;20131;-75
2022/08/27 04:59:43;;;;;;;26.95;13.45;;;;;;;18.11;100.00;157070.66;4978685;28;20062;-77
2022/08/27 05:02:09;;;;;;;30.20;13.65;;;;;;;18.11;100.00;157069.38;4970327;28;20035;-77
2022/08/27 05:04:38;;;;;;;32.75;13.60;;;;;;;18.07;100.00;157060.38;4963487;28;20165;-77
2022/08/27 05:07:03;;;;;;;28.10;12.98;;;;;;;18.11;100.00;157070.66;4967048;28;20047;-76
2022/08/27 05:09:29;;;;;;;24.55;12.02;;;;;;;18.11;100.00;157070.66;4970450;28;20054;-77
2022/08/27 05:11:55;;;;;;;29.27;12.68;;;;;;;18.19;100.00;157090.00;4961347;28;20042;-77
2022/08/27 05:14:22;;;;;;;25.50;13.57;;;;;;;18.09;100.00;157065.50;4969090;28;20041;-77
2022/08/27 05:16:48;;;;;;;28.88;14.10;;;;;;;18.10;100.00;157068.06;4980753;28;20062;-76
2022/08/27 05:19:14;;;;;;;23.67;12.65;;;;;;;18.12;100.00;157073.25;4953613;28;20039;-76
2022/08/27 05:21:45;;;;;;;26.17;12.25;;;;;;;18.13;100.00;157075.81;4959986;28;20106;-77
2022/08/27 05:24:11;;;;;;;26.02;13.85;;;;;;;18.29;100.00;157117.06;4969862;28;20030;-75
2022/08/27 05:26:37;;;;;;;26.27;13.40;;;;;;;18.28;100.00;157114.47;4966928;28;20031;-76
2022/08/27 05:29:04;;;;;;;24.48;13.07;;;;;;;18.29;100.00;157115.78;4954860;28;20069;-77
2022/08/27 05:31:30;;;;;;;22.58;11.93;;;;;;;18.30;100.00;157118.34;4964604;28;20043;-76
2022/08/27 05:33:56;;;;;;;23.98;12.60;;;;;;;18.34;100.00;157127.38;4971180;28;20038;-77
2022/08/27 05:36:30;;;;;;;22.42;11.10;;;;;;;18.28;100.00;157114.47;4969368;28;20422;-76
2022/08/27 05:38:58;;;;;;;26.45;12.82;;;;;;;18.35;100.00;157129.97;4934085;28;20402;-77
2022/08/27 05:41:28;;;;;;;20.10;11.98;;;;;;;18.33;100.00;157126.09;4963072;28;20038;-76
2022/08/27 05:43:56;;;;;;;24.20;12.25;;;;;;;18.28;100.00;157114.47;4963898;28;20167;-76
2022/08/27 05:46:24;;;;;;;27.73;12.45;;;;;;;18.27;100.00;157111.91;4956177;28;20066;-77
2022/08/27 05:48:50;;;;;;;27.50;12.05;;;;;;;18.19;100.00;157091.28;4966940;28;20086;-77
2022/08/27 05:51:20;;;;;;;29.13;11.80;;;;;;;18.20;100.00;157093.88;4969131;28;20039;-76
2022/08/27 05:53:46;;;;;;;26.25;12.73;;;;;;;18.05;100.00;157055.22;4980570;28;20613;-77
2022/08/27 05:56:17;;;;;;;23.33;13.10;;;;;;;18.06;100.00;157059.09;4962295;28;20043;-78
2022/08/27 06:01:30;;;;;;;27.15;13.02;;;;;;;18.00;100.00;157042.31;4965123;28;20039;-78
2022/08/27 06:03:56;;;;;;;28.13;13.23;;;;;;;18.00;100.00;157042.31;4947310;28;20074;-75
2022/08/27 06:06:21;;;;;;;23.15;12.02;;;;;;;18.04;100.00;157052.63;4966621;28;20065;-78
2022/08/27 06:08:49;;;;;;;32.50;13.85;;;;;;;17.98;100.00;157037.16;4967227;28;20035;-77
2022/08/27 06:11:18;;;;;;;22.90;12.90;;;;;;;17.98;100.00;157038.44;4983026;28;20033;-77
2022/08/27 06:13:44;;;;;;;29.58;13.15;;;;;;;17.98;100.00;157037.16;4969212;28;20299;-76
2022/08/27 06:16:15;;;;;;;25.08;13.30;;;;;;;18.04;100.00;157052.63;4965829;28;20043;-76
2022/08/27 06:18:43;;;;;;;27.83;12.55;;;;;;;18.08;100.00;157062.91;4966854;28;20042;-76
2022/08/27 06:21:10;;;;;;;27.60;12.25;;;;;;;18.09;100.00;157066.78;4969954;28;20038;-76
2022/08/27 06:23:36;;;;;;;28.65;12.80;;;;;;;18.04;100.00;157052.63;4948911;28;20038;-77
2022/08/27 06:26:08;;;;;;;29.98;13.13;;;;;;;18.09;100.00;157065.50;4963889;28;20034;-76
2022/08/27 06:28:35;;;;;;;25.77;11.43;;;;;;;18.13;100.00;157075.81;4969806;28;20131;-76
2022/08/27 06:31:22;;;;;;;23.98;12.55;;;;;;;18.16;100.00;157083.56;4966373;28;20034;-76
2022/08/27 06:33:50;;;;;;;25.13;12.60;;;;;;;18.12;100.00;157071.94;4960164;28;20560;-77
2022/08/27 06:36:18;;;;;;;29.45;12.45;;;;;;;18.03;100.00;157051.34;4966617;28;20596;-76
2022/08/27 06:38:44;;;;;;;26.95;13.65;;;;;;;17.96;100.00;157032.00;4965446;28;20031;-77
2022/08/27 06:41:12;;;;;;;30.23;13.77;;;;;;;17.90;100.00;157017.84;4969172;28;20038;-77
2022/08/27 06:43:39;;;;;;;31.50;14.43;;;;;;;17.84;100.00;157003.66;4963055;28;20034;-76
2022/08/27 06:46:08;;;;;;;27.38;13.52;;;;;;;17.83;100.00;157001.00;4950551;28;20062;-76
2022/08/27 06:48:34;;;;;;;32.55;15.23;;;;;;;17.78;100.00;156986.84;4968050;28;20085;-76
2022/08/27 06:51:07;;;;;;;29.27;14.98;;;;;;;17.70;100.00;156968.78;4985635;28;20081;-76
2022/08/27 06:53:33;;;;;;;24.23;13.32;;;;;;;17.79;100.00;156990.72;4967123;28;20102;-77
2022/08/27 06:55:59;;;;;;;34.13;14.18;;;;;;;17.81;100.00;156995.88;4964088;28;20106;-77
2022/08/27 06:58:25;;;;;;;29.17;13.35;;;;;;;17.84;100.00;157003.66;4946850;28;20054;-77
2022/08/27 07:00:50;;;;;;;21.70;12.60;;;;;;;17.85;100.00;157004.94;4958261;28;20042;-77
2022/08/27 07:03:16;;;;;;;24.13;12.38;;;;;;;17.83;100.00;156999.75;4953503;28;20038;-77
2022/08/27 07:05:42;;;;;;;33.42;12.73;;;;;;;17.93;100.00;157024.25;4967553;28;20039;-79
2022/08/27 07:08:08;;;;;;;21.17;11.48;;;;;;;17.92;100.00;157021.72;4962986;28;20073;-77
2022/08/27 07:10:34;;;;;;;21.75;11.68;;;;;;;17.92;100.00;157021.72;4948742;28;20046;-75
2022/08/27 07:13:00;;;;;;;25.50;13.13;;;;;;;17.76;100.00;156981.69;4966445;28;21602;-75
2022/08/27 07:15:26;;;;;;;24.05;12.27;;;;;;;17.79;100.00;156989.44;4967062;28;20046;-77
2022/08/27 07:17:53;;;;;;;29.38;12.35;;;;;;;17.95;100.00;157029.41;4949241;28;20027;-76
2022/08/27 07:20:19;;;;;;;24.98;12.02;;;;;;;17.90;100.00;157017.84;4963186;28;20034;-76
2022/08/27 07:22:46;;;;;;;24.98;12.13;;;;;;;17.93;100.00;157025.53;4949796;28;20049;-77
2022/08/27 07:25:17;;;;;;;26.63;10.90;;;;;;;17.99;100.00;157041.03;4963944;28;20401;-76
2022/08/27 07:27:44;;;;;;;24.50;10.95;;;;;;;17.99;100.00;157041.03;4946007;28;20094;-75
2022/08/27 07:30:12;;;;;;;24.25;10.25;;;;;;;17.98;100.00;157037.16;4958250;28;20046;-75
2022/08/27 07:32:38;;;;;;;17.70;9.52;;;;;;;17.87;100.00;157011.38;4941068;28;20128;-75
2022/08/27 07:35:08;;;;;;;18.70;9.98;;;;;;;17.84;100.00;157002.34;4981929;28;20334;-76
2022/08/27 07:37:38;;;;;;;17.38;9.40;;;;;;;17.83;100.00;157001.00;4960948;28;20922;-76
2022/08/27 07:40:07;;;;;;;20.48;9.73;;;;;;;17.83;100.00;156999.75;4962146;28;20852;-75
2022/08/27 07:45:17;;;;;;;20.08;10.00;;;;;;;17.76;100.00;156981.69;4957782;28;20046;-76
2022/08/27 07:47:43;;;;;;;21.88;9.57;;;;;;;17.68;100.00;156963.63;4977755;28;20062;-76
2022/08/27 07:50:09;;;;;;;19.77;9.70;;;;;;;17.73;100.00;156974.00;4962797;28;20117;-73
2022/08/27 07:52:35;;;;;;;22.58;10.20;;;;;;;17.80;100.00;156993.31;4935122;28;20065;-76
2022/08/27 07:55:01;;;;;;;19.65;9.65;;;;;;;17.78;100.00;156988.16;4952697;28;20525;-76
2022/08/27 07:57:27;;;;;;;19.70;9.35;;;;;;;17.74;100.00;156977.81;4964953;28;20031;-74
2022/08/27 07:59:52;;;;;;;20.73;9.13;;;;;;;17.75;100.00;156980.41;4947488;28;20129;-77
2022/08/27 08:02:18;;;;;;;20.38;9.50;;;;;;;17.69;100.00;156964.97;4966869;28;20034;-76
2022/08/27 08:04:45;;;;;;;21.55;9.35;;;;;;;17.72;100.00;156972.66;4953711;28;20042;-76
2022/08/27 08:07:11;;;;;;;17.38;9.35;;;;;;;17.77;100.00;156984.28;4952516;28;20580;-75
2022/08/27 08:09:37;;;;;;;16.75;8.60;;;;;;;17.79;100.00;156989.44;4964679;28;20042;-75
2022/08/27 08:12:03;;;;;;;25.10;9.57;;;;;;;17.83;100.00;156999.75;4968028;28;20026;-76
2022/08/27 08:14:30;;;;;;;22.17;9.07;;;;;;;17.78;100.00;156986.84;4985225;28;20050;-76
2022/08/27 08:17:01;;;;;;;19.60;8.13;;;;;;;17.75;100.00;156979.13;4981449;28;20039;-75
2022/08/27 08:19:27;;;;;;;19.38;8.60;;;;;;;17.67;100.00;156959.81;4952287;28;20042;-78
2022/08/27 08:21:53;;;;;;;22.15;8.65;;;;;;;17.60;100.00;156941.78;4967259;28;20037;-75
2022/08/27 08:24:20;;;;;;;22.90;7.88;;;;;;;17.68;100.00;156962.38;4956440;28;20031;-76
2022/08/27 08:26:45;;;;;;;15.55;7.72;;;;;;;17.83;100.00;156999.75;4983133;28;20473;-76
2022/08/27 08:29:12;;;;;;;19.45;7.55;;;;;;;17.76;100.00;156981.69;4948562;28;20528;-76
2022/08/27 08:31:40;;;;;;;14.70;7.80;;;;;;;17.70;100.00;156967.53;4966050;28;20452;-76
2022/08/27 08:34:05;;;;;;;13.65;7.45;;;;;;;17.77;100.00;156984.28;4953325;28;20793;-75
2022/08/27 08:36:31;;;;;;;15.07;7.30;;;;;;;17.73;100.00;156974.00;4947832;28;20069;-77
2022/08/27 08:38:58;;;;;;;18.35;8.27;;;;;;;17.71;100.00;156970.13;4970047;28;20062;-77
2022/08/27 08:41:26;;;;;;;15.20;7.32;;;;;;;17.71;100.00;156970.13;4952965;28;20508;-77
2022/08/27 08:43:54;;;;;;;17.33;7.57;;;;;;;17.74;100.00;156977.81;4968859;28;20046;-76
2022/08/27 08:46:31;;;;;;;18.52;7.90;;;;;;;17.76;100.00;156982.97;4952594;28;20507;-77
2022/08/27 08:49:01;;;;;;;19.17;8.27;;;;;;;17.79;100.00;156990.72;4969453;28;20428;-78
2022/08/27 08:51:31;;;;;;;14.98;7.50;;;;;;;18.00;100.00;157043.59;4981712;28;20035;-76
2022/08/27 08:54:03;;;;;;;17.92;8.18;;;;;;;17.93;100.00;157025.53;4947851;28;20055;-76
2022/08/27 08:56:46;;;;;;;21.15;8.05;;;;;;;17.82;100.00;156997.13;4988126;28;20050;-75
2022/08/27 08:59:23;;;;;;;17.67;7.82;;;;;;;17.86;100.00;157007.53;4989812;28;20035;-75
2022/08/27 09:01:49;;;;;;;23.55;8.27;;;;;;;17.88;100.00;157013.97;4995116;28;20070;-73
2022/08/27 09:04:15;;;;;;;18.17;8.02;;;;;;;17.92;100.00;157023.00;4987178;28;20031;-75
2022/08/27 09:06:55;;;;;;;18.92;8.30;;;;;;;17.93;100.00;157025.53;4968353;28;20137;-77
2022/08/27 09:09:26;;;;;;;21.65;8.50;;;;;;;17.93;100.00;157024.25;4966205;28;20137;-76
2022/08/27 09:11:58;;;;;;;25.65;9.40;;;;;;;17.86;100.00;157007.53;4951557;28;20035;-78
2022/08/27 09:14:37;;;;;;;22.90;9.02;;;;;;;17.83;100.00;156999.75;4979306;28;20035;-77
2022/08/27 09:17:04;;;;;;;21.05;7.93;;;;;;;17.87;100.00;157011.38;4935544;28;20058;-76
2022/08/27 09:19:30;;;;;;;25.35;8.48;;;;;;;18.02;100.00;157048.75;4984969;28;20059;-76
2022/08/27 09:21:59;;;;;;;24.30;9.02;;;;;;;17.95;100.00;157029.41;4945580;28;20035;-77
2022/08/27 09:24:28;;;;;;;21.40;8.45;;;;;;;17.92;100.00;157023.00;4960952;28;20034;-76
2022/08/27 09:26:54;;;;;;;17.83;8.25;;;;;;;17.97;100.00;157034.56;4971890;28;20358;-77
2022/08/27 09:29:25;;;;;;;19.83;8.85;;;;;;;17.94;100.00;157026.88;4970058;28;20142;-77
2022/08/27 09:32:11;;;;;;;19.30;8.68;;;;;;;17.90;100.00;157017.84;4952683;28;20508;-77
2022/08/27 09:34:40;;;;;;;18.95;8.88;;;;;;;17.94;100.00;157026.88;4949871;28;20039;-77
2022/08/27 09:37:23;;;;;;;19.98;8.38;;;;;;;17.98;100.00;157038.44;4946722;28;20035;-77
2022/08/27 09:40:03;;;;;;;20.10;9.38;;;;;;;17.97;100.00;157034.56;4957493;28;20066;-77
2022/08/27 09:42:36;;;;;;;20.85;9.18;;;;;;;18.04;100.00;157053.88;4967816;28;20035;-76
2022/08/27 09:45:10;;;;;;;21.30;9.38;;;;;;;18.03;100.00;157051.34;4968382;28;20102;-75
2022/08/27 09:47:46;;;;;;;28.45;9.55;;;;;;;18.01;100.00;157046.19;4971939;28;20031;-76
2022/08/27 09:50:15;;;;;;;20.48;8.60;;;;;;;17.96;100.00;157033.28;4963843;28;20030;-75
2022/08/27 09:52:56;;;;;;;22.45;9.88;;;;;;;17.99;100.00;157041.03;4985374;28;20044;-74
2022/08/27 09:55:27;;;;;;;27.23;9.63;;;;;;;17.98;100.00;157037.16;4952987;28;20841;-77
2022/08/27 09:57:53;;;;;;;21.02;8.75;;;;;;;18.05;100.00;157056.50;4933707;28;20035;-77
2022/08/27 10:00:31;;;;;;;26.45;9.48;;;;;;;18.02;100.00;157047.47;4985062;28;20042;-77
2022/08/27 10:03:01;;;;;;;19.80;8.60;;;;;;;18.03;100.00;157050.06;4965771;28;20035;-76
2022/08/27 10:05:55;;;;;;;20.92;8.35;;;;;;;17.96;100.00;157032.00;4967768;28;20038;-78
2022/08/27 10:08:33;;;;;;;24.17;8.93;;;;;;;17.90;100.00;157017.84;4969221;28;20422;-78
2022/08/27 10:11:09;;;;;;;24.27;8.77;;;;;;;17.84;100.00;157003.66;4952738;28;20084;-78
2022/08/27 10:13:46;;;;;;;18.27;8.57;;;;;;;17.94;100.00;157026.88;4965686;28;20043;-78
2022/08/27 10:16:51;;;;;;;18.33;7.82;;;;;;;18.03;100.00;157051.34;4938244;28;20074;-77
2022/08/27 10:19:42;;;;;;;17.02;8.43;;;;;;;18.06;100.00;157059.09;4967358;28;20118;-78
2022/08/27 10:22:17;;;;;;;21.85;8.35;;;;;;;18.18;100.00;157087.44;4952949;28;20051;-76
2022/08/27 10:25:15;;;;;;;22.13;7.43;;;;;;;18.19;100.00;157090.00;4948315;28;20049;-77
2022/08/27 10:28:05;;;;;;;13.48;7.03;;;;;;;18.20;100.00;157093.88;4930438;28;20051;-78
2022/08/27 10:31:24;;;;;;;19.15;7.45;;;;;;;18.30;100.00;157118.34;4968315;28;20038;-77
2022/08/27 10:34:02;;;;;;;13.30;6.03;;;;;;;18.35;100.00;157131.25;4931510;29;20054;-77
2022/08/27 10:36:43;;;;;;;16.27;7.10;;;;;;;18.36;100.00;157132.53;4965747;28;20070;-76
2022/08/27 10:39:23;;;;;;;15.10;7.18;;;;;;;18.31;100.00;157119.63;4967938;28;20496;-78
2022/08/27 10:41:59;;;;;;;16.05;7.88;;;;;;;18.38;100.00;157137.69;4971650;28;20097;-78
2022/08/27 10:44:31;;;;;;;18.50;7.85;;;;;;;18.29;100.00;157117.06;4957939;28;20093;-77
2022/08/27 10:47:18;;;;;;;17.17;7.82;;;;;;;18.33;100.00;157126.09;4951995;28;20053;-77
2022/08/27 10:50:02;;;;;;;17.48;7.25;;;;;;;18.33;100.00;157124.78;4985029;28;20046;-76
2022/08/27 10:52:36;;;;;;;15.25;7.53;;;;;;;18.39;100.00;157141.56;4967688;28;20061;-77
2022/08/27 10:55:20;;;;;;;16.17;6.93;;;;;;;18.46;100.00;157158.31;4966399;28;20457;-77
2022/08/27 10:58:25;;;;;;;14.13;6.82;;;;;;;18.56;100.00;157184.09;4952621;28;20432;-77
2022/08/27 11:00:57;;;;;;;14.07;7.28;;;;;;;18.59;100.00;157190.53;4950544;28;20030;-76
2022/08/27 11:03:56;;;;;;;12.15;6.55;;;;;;;18.76;100.00;157233.06;4952619;28;20559;-76
2022/08/27 11:06:30;;;;;;;13.13;6.68;;;;;;;18.74;100.00;157227.91;4955411;28;20041;-77
2022/08/27 11:09:05;;;;;;;16.05;6.75;;;;;;;18.75;100.00;157230.50;4973532;28;20166;-77
2022/08/27 11:11:47;;;;;;;14.20;6.50;;;;;;;18.74;100.00;157227.91;4950169;28;20409;-77
2022/08/27 11:14:27;;;;;;;12.60;6.72;;;;;;;18.83;100.00;157252.44;4968565;28;20134;-75
2022/08/27 11:17:02;;;;;;;18.30;7.30;;;;;;;18.75;100.00;157231.78;4965678;28;20135;-76
2022/08/27 11:19:42;;;;;;;13.70;6.57;;;;;;;18.79;100.00;157240.81;4979275;28;20041;-75
2022/08/27 11:22:21;;;;;;;18.10;6.85;;;;;;;18.85;100.00;157256.31;4971377;28;20428;-76